createdAt,value
2019-06-20T00:00:30.977Z,23.40
2019-06-20T00:01:30.986Z,23.14
2019-06-20T00:02:31.000Z,23.02
2019-06-20T00:03:30.998Z,22.53
2019-06-20T00:04:30.968Z,22.53
2019-06-20T00:05:30.981Z,22.74
2019-06-20T00:06:31.044Z,22.90
2019-06-20T00:07:30.995Z,22.67
2019-06-20T00:08:30.985Z,22.69
2019-06-20T00:09:39.738Z,22.46
2019-06-20T00:11:55.598Z,22.60
2019-06-20T00:12:59.542Z,22.43
2019-06-20T00:13:55.520Z,22.77
2019-06-20T00:16:01.416Z,22.57
2019-06-20T00:17:00.096Z,22.72
2019-06-20T00:18:54.863Z,22.46
2019-06-20T00:19:44.928Z,22.31
2019-06-20T00:20:44.820Z,22.13
2019-06-20T00:21:44.796Z,22.28
2019-06-20T00:22:44.817Z,22.35
2019-06-20T00:23:44.782Z,22.77
2019-06-20T00:24:44.815Z,22.34
2019-06-20T00:25:44.789Z,22.37
2019-06-20T00:26:44.801Z,22.52
2019-06-20T00:27:44.882Z,22.41
2019-06-20T00:28:44.797Z,22.44
2019-06-20T00:29:45.682Z,22.47
2019-06-20T00:30:44.888Z,22.32
2019-06-20T00:31:44.813Z,22.43
2019-06-20T00:32:44.810Z,22.34
2019-06-20T00:33:44.829Z,22.78
2019-06-20T00:34:44.821Z,22.68
2019-06-20T00:35:53.563Z,22.68
2019-06-20T00:37:49.362Z,22.39
2019-06-20T00:38:49.368Z,22.39
2019-06-20T00:39:49.353Z,22.27
2019-06-20T00:40:49.348Z,22.14
2019-06-20T00:41:49.397Z,22.06
2019-06-20T00:42:49.350Z,22.10
2019-06-20T00:43:49.317Z,22.17
2019-06-20T00:44:49.339Z,22.31
2019-06-20T00:45:49.325Z,22.46
2019-06-20T00:46:49.421Z,22.44
2019-06-20T00:47:49.390Z,22.46
2019-06-20T00:48:58.043Z,22.59
2019-06-20T00:50:53.909Z,22.31
2019-06-20T00:51:53.879Z,22.25
2019-06-20T00:52:53.840Z,22.50
2019-06-20T00:53:53.861Z,22.39
2019-06-20T00:54:53.879Z,22.65
2019-06-20T00:55:53.912Z,22.49
2019-06-20T00:56:53.865Z,22.75
2019-06-20T00:57:53.884Z,22.77
2019-06-20T00:58:53.860Z,22.54
2019-06-20T00:59:53.869Z,22.12
2019-06-20T01:00:53.922Z,21.71
2019-06-20T01:01:53.877Z,21.66
2019-06-20T01:02:53.865Z,21.59
2019-06-20T01:04:02.598Z,21.39
2019-06-20T01:05:58.435Z,21.61
2019-06-20T01:07:07.067Z,21.61
2019-06-20T01:09:00.894Z,21.34
2019-06-20T01:11:41.366Z,20.87
2019-06-20T01:12:31.349Z,20.84
2019-06-20T01:13:34.122Z,21.14
2019-06-20T01:14:31.342Z,21.23
2019-06-20T01:15:31.373Z,21.23
2019-06-20T01:16:31.506Z,21.53
2019-06-20T01:17:31.328Z,21.36
2019-06-20T01:18:31.335Z,21.50
2019-06-20T01:19:31.333Z,21.63
2019-06-20T01:20:31.372Z,21.57
2019-06-20T01:21:31.324Z,21.53
2019-06-20T01:22:31.374Z,21.63
2019-06-20T01:23:31.331Z,21.69
2019-06-20T01:24:31.384Z,21.79
2019-06-20T01:25:31.392Z,21.74
2019-06-20T01:26:31.346Z,21.60
2019-06-20T01:27:31.349Z,21.61
2019-06-20T01:28:31.349Z,21.50
2019-06-20T01:29:31.371Z,21.39
2019-06-20T01:30:31.399Z,21.50
2019-06-20T01:31:31.408Z,21.27
2019-06-20T01:32:31.410Z,21.20
2019-06-20T01:33:31.391Z,21.13
2019-06-20T01:34:31.410Z,21.09
2019-06-20T01:35:31.360Z,21.17
2019-06-20T01:36:31.412Z,21.23
2019-06-20T01:37:31.364Z,21.29
2019-06-20T01:38:31.367Z,21.26
2019-06-20T01:39:31.392Z,21.30
2019-06-20T01:40:31.440Z,21.13
2019-06-20T01:41:31.410Z,20.99
2019-06-20T01:42:31.443Z,21.20
2019-06-20T01:43:31.384Z,21.34
2019-06-20T01:44:31.410Z,21.38
2019-06-20T01:45:31.389Z,21.26
2019-06-20T01:46:31.417Z,21.30
2019-06-20T01:47:31.391Z,21.13
2019-06-20T01:48:31.422Z,20.98
2019-06-20T01:49:31.499Z,21.14
2019-06-20T01:50:31.416Z,21.24
2019-06-20T01:51:31.489Z,21.29
2019-06-20T01:52:31.462Z,21.17
2019-06-20T01:53:31.420Z,21.19
2019-06-20T01:54:31.426Z,21.04
2019-06-20T01:55:31.465Z,20.98
2019-06-20T01:56:31.440Z,21.11
2019-06-20T01:57:31.447Z,21.21
2019-06-20T01:58:31.500Z,21.13
2019-06-20T01:59:31.497Z,21.08
2019-06-20T02:00:40.326Z,21.29
2019-06-20T02:02:36.343Z,21.24
2019-06-20T02:03:44.811Z,21.39
2019-06-20T02:06:01.134Z,21.30
2019-06-20T02:07:00.592Z,21.11
2019-06-20T02:08:46.419Z,21.16
2019-06-20T02:09:46.597Z,21.30
2019-06-20T02:10:46.492Z,21.27
2019-06-20T02:11:46.208Z,21.51
2019-06-20T02:12:46.345Z,21.71
2019-06-20T02:13:46.405Z,21.72
2019-06-20T02:14:55.620Z,21.71
2019-06-20T02:16:51.137Z,21.79
2019-06-20T02:19:31.443Z,21.69
2019-06-20T02:22:03.545Z,21.97
2019-06-20T02:23:12.244Z,21.88
2019-06-20T02:25:16.947Z,21.72
2019-06-20T02:27:41.128Z,21.78
2019-06-20T02:28:41.132Z,21.71
2019-06-20T02:29:41.116Z,21.63
2019-06-20T02:30:41.041Z,21.63
2019-06-20T02:31:41.056Z,21.74
2019-06-20T02:32:41.048Z,21.63
2019-06-20T02:33:41.091Z,21.61
2019-06-20T02:34:41.061Z,21.56
2019-06-20T02:35:41.092Z,21.74
2019-06-20T02:36:41.069Z,21.99
2019-06-20T02:37:41.073Z,22.31
2019-06-20T02:38:41.094Z,22.14
2019-06-20T02:39:41.124Z,22.31
2019-06-20T02:40:41.105Z,22.32
2019-06-20T02:41:41.078Z,22.28
2019-06-20T02:42:41.110Z,22.16
2019-06-20T02:43:41.098Z,22.02
2019-06-20T02:44:41.096Z,22.17
2019-06-20T02:45:41.087Z,22.14
2019-06-20T02:46:41.091Z,22.07
2019-06-20T02:47:41.118Z,22.27
2019-06-20T02:48:41.126Z,22.34
2019-06-20T02:49:41.238Z,22.34
2019-06-20T02:50:41.132Z,22.20
2019-06-20T02:51:41.164Z,21.88
2019-06-20T02:52:41.158Z,21.94
2019-06-20T02:53:41.154Z,21.95
2019-06-20T02:54:41.150Z,21.85
2019-06-20T02:55:41.166Z,21.67
2019-06-20T02:56:41.122Z,21.66
2019-06-20T02:57:41.144Z,21.72
2019-06-20T02:58:41.195Z,21.90
2019-06-20T02:59:41.180Z,21.66
2019-06-20T03:00:41.306Z,21.42
2019-06-20T03:01:41.191Z,21.38
2019-06-20T03:02:41.205Z,21.39
2019-06-20T03:03:41.326Z,21.50
2019-06-20T03:04:41.179Z,21.53
2019-06-20T03:05:41.205Z,21.51
2019-06-20T03:06:41.156Z,21.54
2019-06-20T03:07:41.140Z,21.54
2019-06-20T03:08:41.206Z,21.51
2019-06-20T03:11:23.428Z,21.56
2019-06-20T03:12:23.038Z,21.79
2019-06-20T03:14:18.984Z,22.16
2019-06-20T03:15:18.842Z,21.92
2019-06-20T03:16:18.890Z,21.97
2019-06-20T03:17:18.836Z,21.78
2019-06-20T03:18:18.849Z,21.59
2019-06-20T03:19:18.862Z,21.42
2019-06-20T03:20:18.900Z,21.45
2019-06-20T03:21:19.796Z,21.53
2019-06-20T03:22:18.869Z,21.66
2019-06-20T03:23:18.952Z,21.53
2019-06-20T03:24:18.873Z,21.72
2019-06-20T03:25:18.860Z,21.85
2019-06-20T03:26:18.849Z,21.59
2019-06-20T03:27:18.862Z,21.36
2019-06-20T03:28:18.899Z,21.26
2019-06-20T03:29:18.901Z,21.24
2019-06-20T03:30:18.865Z,21.27
2019-06-20T03:31:18.887Z,21.27
2019-06-20T03:32:18.947Z,21.56
2019-06-20T03:33:18.924Z,21.54
2019-06-20T03:34:18.879Z,21.75
2019-06-20T03:35:18.874Z,21.90
2019-06-20T03:36:18.880Z,21.79
2019-06-20T03:37:18.933Z,21.78
2019-06-20T03:38:18.917Z,21.95
2019-06-20T03:39:19.022Z,21.74
2019-06-20T03:40:18.893Z,21.67
2019-06-20T03:41:18.934Z,21.75
2019-06-20T03:42:18.962Z,21.63
2019-06-20T03:43:18.887Z,21.48
2019-06-20T03:44:18.898Z,21.64
2019-06-20T03:45:18.905Z,21.54
2019-06-20T03:46:18.916Z,21.76
2019-06-20T03:47:18.930Z,21.90
2019-06-20T03:48:18.935Z,21.94
2019-06-20T03:49:18.972Z,21.92
2019-06-20T03:50:18.915Z,21.72
2019-06-20T03:51:18.986Z,21.76
2019-06-20T03:52:18.938Z,21.72
2019-06-20T03:53:18.944Z,21.74
2019-06-20T03:54:18.915Z,21.69
2019-06-20T03:55:19.755Z,21.69
2019-06-20T03:56:19.015Z,21.51
2019-06-20T03:57:18.967Z,21.39
2019-06-20T03:58:19.025Z,21.34
2019-06-20T03:59:19.002Z,21.45
2019-06-20T04:00:19.033Z,21.78
2019-06-20T04:01:18.992Z,21.69
2019-06-20T04:02:19.043Z,21.76
2019-06-20T04:03:18.981Z,21.75
2019-06-20T04:04:19.020Z,21.76
2019-06-20T04:05:18.987Z,22.10
2019-06-20T04:06:18.950Z,21.88
2019-06-20T04:07:19.041Z,21.71
2019-06-20T04:08:19.005Z,21.72
2019-06-20T04:09:19.047Z,21.91
2019-06-20T04:24:51.380Z,21.90
2019-06-20T04:26:01.064Z,21.88
2019-06-20T04:28:06.706Z,21.76
2019-06-20T04:28:56.391Z,21.67
2019-06-20T04:29:56.459Z,21.78
2019-06-20T04:30:56.230Z,21.98
2019-06-20T04:31:56.536Z,21.67
2019-06-20T04:33:05.351Z,21.59
2019-06-20T04:35:00.992Z,21.60
2019-06-20T04:36:00.904Z,21.59
2019-06-20T04:37:00.904Z,21.42
2019-06-20T04:38:00.748Z,21.46
2019-06-20T04:39:00.775Z,21.46
2019-06-20T04:40:00.772Z,21.39
2019-06-20T04:41:00.668Z,21.53
2019-06-20T04:42:00.735Z,21.51
2019-06-20T04:43:00.718Z,21.48
2019-06-20T04:44:00.668Z,21.54
2019-06-20T04:45:00.677Z,21.54
2019-06-20T04:46:00.724Z,21.63
2019-06-20T04:47:10.482Z,21.60
2019-06-20T04:48:54.467Z,21.67
2019-06-20T04:49:54.101Z,21.59
2019-06-20T04:50:54.145Z,21.82
2019-06-20T04:51:54.177Z,21.97
2019-06-20T04:52:54.116Z,21.90
2019-06-20T04:53:54.121Z,21.95
2019-06-20T04:54:54.134Z,21.76
2019-06-20T04:55:54.139Z,21.67
2019-06-20T04:56:54.162Z,21.76
2019-06-20T04:57:54.141Z,21.74
2019-06-20T04:58:54.129Z,21.67
2019-06-20T04:59:54.141Z,21.83
2019-06-20T05:00:54.144Z,21.78
2019-06-20T05:01:54.165Z,21.75
2019-06-20T05:02:54.141Z,21.78
2019-06-20T05:03:54.139Z,21.88
2019-06-20T05:04:54.269Z,21.88
2019-06-20T05:06:03.922Z,21.95
2019-06-20T05:07:58.858Z,21.76
2019-06-20T05:09:07.400Z,21.88
2019-06-20T05:11:13.186Z,21.71
2019-06-20T05:12:11.914Z,21.74
2019-06-20T05:14:17.720Z,22.09
2019-06-20T05:15:18.288Z,22.28
2019-06-20T05:17:12.208Z,22.78
2019-06-20T05:18:20.886Z,22.80
2019-06-20T05:20:17.609Z,23.08
2019-06-20T05:21:17.584Z,23.07
2019-06-20T05:22:26.210Z,23.05
2019-06-20T05:24:25.468Z,23.76
2019-06-20T05:25:30.930Z,24.38
2019-06-20T05:27:26.605Z,24.88
2019-06-20T05:28:35.270Z,25.20
2019-06-20T05:30:32.357Z,26.18
2019-06-20T05:31:40.958Z,26.68
2019-06-20T05:33:36.817Z,27.92
2019-06-20T05:34:36.906Z,28.66
2019-06-20T05:35:46.600Z,29.00
2019-06-20T05:37:49.539Z,29.52
2019-06-20T05:38:50.310Z,29.49
2019-06-20T05:40:46.548Z,30.24
2019-06-20T05:41:55.039Z,30.68
2019-06-20T05:44:02.105Z,30.45
2019-06-20T05:45:10.965Z,30.74
2019-06-20T05:47:11.361Z,30.45
2019-06-20T05:48:06.045Z,30.50
2019-06-20T05:50:11.256Z,29.45
2019-06-20T05:51:02.197Z,28.80
2019-06-20T05:52:02.252Z,28.90
2019-06-20T05:53:02.125Z,29.35
2019-06-20T05:54:02.529Z,29.50
2019-06-20T05:55:02.110Z,29.28
2019-06-20T05:56:02.154Z,28.82
2019-06-20T05:57:03.691Z,28.50
2019-06-20T05:58:02.143Z,27.80
2019-06-20T05:59:02.198Z,27.41
2019-06-20T06:00:02.217Z,27.09
2019-06-20T06:01:02.224Z,26.74
2019-06-20T06:02:02.266Z,26.36
2019-06-20T06:03:05.807Z,26.02
2019-06-20T06:04:02.340Z,25.61
2019-06-20T06:05:02.253Z,25.64
2019-06-20T06:06:02.299Z,24.97
2019-06-20T06:07:02.453Z,24.94
2019-06-20T06:08:02.365Z,25.06
2019-06-20T06:09:02.475Z,25.16
2019-06-20T06:10:04.311Z,25.06
2019-06-20T06:11:02.324Z,25.05
2019-06-20T06:12:02.376Z,25.09
2019-06-20T06:13:03.077Z,25.31
2019-06-20T06:14:02.382Z,25.42
2019-06-20T06:15:02.358Z,25.30
2019-06-20T06:16:02.366Z,25.71
2019-06-20T06:17:12.030Z,25.90
2019-06-20T06:18:55.978Z,26.68
2019-06-20T06:19:55.924Z,26.52
2019-06-20T06:20:55.867Z,25.99
2019-06-20T06:21:55.858Z,25.94
2019-06-20T06:22:55.852Z,26.24
2019-06-20T06:23:55.817Z,26.28
2019-06-20T06:24:55.879Z,26.24
2019-06-20T06:25:55.919Z,25.83
2019-06-20T06:26:59.699Z,25.71
2019-06-20T06:27:56.053Z,25.31
2019-06-20T06:28:55.910Z,24.92
2019-06-20T06:29:55.922Z,24.83
2019-06-20T06:30:55.893Z,24.92
2019-06-20T06:31:55.944Z,25.00
2019-06-20T06:32:55.980Z,24.73
2019-06-20T06:33:55.904Z,24.95
2019-06-20T06:34:55.975Z,24.95
2019-06-20T06:35:55.984Z,24.91
2019-06-20T06:36:55.957Z,24.82
2019-06-20T06:37:55.975Z,24.73
2019-06-20T06:38:55.942Z,24.69
2019-06-20T06:39:55.994Z,24.79
2019-06-20T06:40:55.951Z,24.95
2019-06-20T06:41:56.241Z,24.90
2019-06-20T06:42:56.028Z,24.87
2019-06-20T06:43:55.968Z,24.92
2019-06-20T06:44:56.741Z,24.98
2019-06-20T06:45:56.125Z,24.94
2019-06-20T06:46:59.450Z,24.90
2019-06-20T06:47:56.098Z,24.87
2019-06-20T06:48:56.180Z,24.75
2019-06-20T06:49:56.449Z,24.68
2019-06-20T06:50:56.235Z,24.77
2019-06-20T06:53:35.343Z,24.53
2019-06-20T06:54:35.636Z,24.67
2019-06-20T06:55:35.284Z,24.76
2019-06-20T06:56:45.052Z,24.77
2019-06-20T06:58:37.189Z,24.71
2019-06-20T06:59:28.843Z,24.73
2019-06-20T07:00:28.770Z,24.75
2019-06-20T07:01:29.507Z,24.73
2019-06-20T07:02:28.849Z,24.85
2019-06-20T07:03:28.967Z,24.73
2019-06-20T07:04:28.672Z,24.75
2019-06-20T07:05:29.010Z,24.75
2019-06-20T07:06:28.728Z,24.68
2019-06-20T07:07:28.768Z,24.61
2019-06-20T07:08:28.725Z,24.50
2019-06-20T07:09:28.773Z,24.47
2019-06-20T07:10:28.742Z,24.34
2019-06-20T07:11:28.751Z,24.39
2019-06-20T07:12:28.786Z,24.49
2019-06-20T07:13:28.763Z,24.71
2019-06-20T07:14:28.746Z,24.68
2019-06-20T07:15:28.704Z,24.77
2019-06-20T07:16:28.858Z,24.64
2019-06-20T07:17:28.984Z,24.79
2019-06-20T07:18:28.929Z,24.68
2019-06-20T07:19:28.818Z,24.73
2019-06-20T07:20:28.781Z,24.83
2019-06-20T07:21:29.153Z,24.68
2019-06-20T07:22:28.953Z,24.63
2019-06-20T07:23:28.962Z,24.69
2019-06-20T07:24:28.839Z,24.27
2019-06-20T07:25:28.777Z,24.50
2019-06-20T07:26:28.839Z,24.61
2019-06-20T07:27:28.830Z,24.82
2019-06-20T07:28:28.843Z,24.64
2019-06-20T07:29:28.913Z,24.82
2019-06-20T07:30:28.820Z,24.61
2019-06-20T07:31:28.871Z,24.60
2019-06-20T07:32:29.375Z,24.71
2019-06-20T07:33:28.978Z,24.73
2019-06-20T07:34:28.888Z,24.64
2019-06-20T07:35:28.955Z,24.60
2019-06-20T07:36:28.870Z,24.64
2019-06-20T07:37:28.854Z,24.61
2019-06-20T07:38:29.014Z,24.56
2019-06-20T07:39:28.912Z,24.63
2019-06-20T07:40:28.878Z,24.64
2019-06-20T07:41:28.859Z,24.53
2019-06-20T07:42:28.865Z,24.56
2019-06-20T07:43:28.943Z,24.57
2019-06-20T07:44:28.934Z,24.56
2019-06-20T07:45:28.936Z,24.49
2019-06-20T07:46:28.942Z,24.45
2019-06-20T07:47:28.910Z,24.41
2019-06-20T07:48:38.303Z,24.38
2019-06-20T07:50:38.482Z,24.57
2019-06-20T07:51:35.281Z,24.31
2019-06-20T07:52:35.413Z,24.32
2019-06-20T07:53:35.388Z,24.34
2019-06-20T07:54:35.284Z,24.37
2019-06-20T07:55:35.329Z,24.23
2019-06-20T07:56:35.309Z,24.39
2019-06-20T07:57:35.319Z,24.24
2019-06-20T07:58:35.339Z,24.26
2019-06-20T07:59:35.338Z,24.31
2019-06-20T08:00:35.604Z,24.32
2019-06-20T08:01:35.553Z,24.05
2019-06-20T08:02:35.370Z,24.10
2019-06-20T08:03:35.429Z,24.08
2019-06-20T08:04:35.404Z,24.22
2019-06-20T08:05:44.268Z,24.38
2019-06-20T08:07:40.921Z,24.29
2019-06-20T08:08:40.921Z,24.37
2019-06-20T08:09:45.255Z,24.41
2019-06-20T08:10:49.616Z,24.41
2019-06-20T08:12:58.167Z,24.27
2019-06-20T08:13:54.309Z,24.08
2019-06-20T08:15:50.188Z,24.00
2019-06-20T08:16:50.138Z,24.00
2019-06-20T08:17:50.121Z,23.90
2019-06-20T08:18:50.161Z,23.87
2019-06-20T08:19:50.168Z,23.89
2019-06-20T08:20:50.124Z,23.83
2019-06-20T08:21:50.130Z,24.07
2019-06-20T08:22:50.168Z,24.08
2019-06-20T08:23:50.143Z,24.20
2019-06-20T08:24:50.142Z,24.27
2019-06-20T08:25:50.180Z,24.12
2019-06-20T08:27:00.380Z,24.16
2019-06-20T08:28:43.776Z,24.10
2019-06-20T08:29:53.164Z,24.10
2019-06-20T08:31:59.743Z,24.13
2019-06-20T08:32:48.354Z,24.27
2019-06-20T08:33:48.373Z,24.35
2019-06-20T08:34:58.805Z,24.32
2019-06-20T08:36:50.999Z,24.31
2019-06-20T08:37:51.722Z,24.14
2019-06-20T08:39:46.503Z,24.39
2019-06-20T08:40:46.492Z,24.34
2019-06-20T08:41:46.509Z,24.16
2019-06-20T08:42:46.497Z,24.26
2019-06-20T08:43:46.533Z,24.20
2019-06-20T08:44:46.519Z,24.26
2019-06-20T08:45:46.530Z,24.24
2019-06-20T08:46:46.517Z,24.35
2019-06-20T08:47:46.544Z,24.45
2019-06-20T08:48:46.523Z,24.45
2019-06-20T08:49:46.560Z,24.26
2019-06-20T08:50:46.559Z,24.35
2019-06-20T08:51:46.555Z,24.24
2019-06-20T08:52:46.547Z,24.23
2019-06-20T08:53:46.566Z,24.13
2019-06-20T08:54:46.551Z,24.34
2019-06-20T08:55:46.584Z,24.37
2019-06-20T08:56:46.585Z,24.29
2019-06-20T08:57:46.668Z,24.23
2019-06-20T08:58:46.636Z,24.26
2019-06-20T08:59:46.586Z,24.37
2019-06-20T09:00:46.593Z,24.52
2019-06-20T09:01:46.627Z,24.63
2019-06-20T09:02:46.752Z,24.71
2019-06-20T09:03:46.620Z,24.68
2019-06-20T09:04:46.606Z,24.39
2019-06-20T09:05:46.607Z,24.38
2019-06-20T09:06:49.920Z,24.54
2019-06-20T09:07:46.621Z,24.73
2019-06-20T09:08:46.658Z,24.76
2019-06-20T09:09:46.679Z,24.69
2019-06-20T09:10:46.645Z,24.82
2019-06-20T09:11:46.672Z,24.88
2019-06-20T09:12:46.710Z,25.02
2019-06-20T09:13:46.710Z,25.06
2019-06-20T09:14:46.690Z,25.09
2019-06-20T09:15:46.688Z,25.10
2019-06-20T09:16:46.670Z,25.09
2019-06-20T09:17:46.692Z,25.05
2019-06-20T09:18:56.620Z,25.09
2019-06-20T09:22:30.263Z,25.09
2019-06-20T09:23:19.602Z,25.07
2019-06-20T09:24:19.619Z,25.24
2019-06-20T09:25:19.573Z,25.12
2019-06-20T09:26:19.620Z,24.97
2019-06-20T09:27:19.588Z,24.94
2019-06-20T09:28:19.616Z,25.12
2019-06-20T09:29:19.619Z,25.10
2019-06-20T09:30:19.642Z,24.94
2019-06-20T09:31:19.618Z,24.97
2019-06-20T09:32:19.686Z,24.94
2019-06-20T09:33:19.661Z,25.10
2019-06-20T09:34:19.635Z,25.06
2019-06-20T09:35:28.423Z,24.85
2019-06-20T09:37:24.173Z,24.85
2019-06-20T09:38:24.147Z,24.85
2019-06-20T09:39:24.168Z,24.77
2019-06-20T09:40:24.164Z,24.92
2019-06-20T09:41:24.168Z,25.09
2019-06-20T09:42:24.190Z,25.02
2019-06-20T09:43:27.840Z,25.05
2019-06-20T09:44:24.220Z,25.06
2019-06-20T09:45:24.185Z,25.10
2019-06-20T09:46:24.197Z,24.90
2019-06-20T09:47:24.206Z,25.00
2019-06-20T09:48:24.208Z,25.13
2019-06-20T09:49:24.255Z,25.12
2019-06-20T09:50:24.231Z,25.15
2019-06-20T09:51:24.222Z,25.10
2019-06-20T09:52:24.231Z,25.01
2019-06-20T09:53:24.236Z,25.07
2019-06-20T09:54:24.342Z,24.95
2019-06-20T09:55:24.247Z,24.92
2019-06-20T09:56:24.253Z,25.10
2019-06-20T09:57:24.263Z,25.19
2019-06-20T09:58:24.269Z,25.20
2019-06-20T09:59:27.762Z,25.27
2019-06-20T10:00:24.274Z,25.06
2019-06-20T10:01:24.284Z,25.13
2019-06-20T10:02:24.305Z,25.24
2019-06-20T10:03:24.295Z,25.27
2019-06-20T10:04:24.300Z,25.28
2019-06-20T10:05:24.318Z,25.15
2019-06-20T10:06:24.320Z,25.06
2019-06-20T10:07:24.337Z,25.07
2019-06-20T10:08:24.337Z,25.35
2019-06-20T10:09:24.330Z,25.38
2019-06-20T10:10:24.364Z,25.31
2019-06-20T10:11:24.369Z,25.34
2019-06-20T10:12:24.361Z,25.37
2019-06-20T10:13:24.385Z,25.37
2019-06-20T10:14:24.377Z,25.37
2019-06-20T10:15:24.368Z,25.31
2019-06-20T10:16:24.398Z,25.28
2019-06-20T10:17:24.391Z,25.34
2019-06-20T10:18:24.387Z,25.30
2019-06-20T10:19:24.401Z,25.35
2019-06-20T10:20:24.400Z,25.53
2019-06-20T10:21:24.469Z,25.49
2019-06-20T10:22:24.428Z,25.39
2019-06-20T10:23:24.425Z,25.54
2019-06-20T10:24:24.425Z,25.54
2019-06-20T10:25:24.427Z,25.59
2019-06-20T10:26:24.451Z,25.54
2019-06-20T10:27:24.441Z,25.59
2019-06-20T10:28:24.472Z,25.64
2019-06-20T10:29:24.474Z,25.62
2019-06-20T10:30:24.476Z,25.75
2019-06-20T10:31:24.471Z,25.68
2019-06-20T10:32:24.505Z,25.72
2019-06-20T10:33:24.486Z,25.74
2019-06-20T10:34:24.520Z,25.69
2019-06-20T10:35:24.494Z,25.53
2019-06-20T10:36:24.504Z,25.52
2019-06-20T10:37:24.508Z,25.49
2019-06-20T10:38:24.521Z,25.54
2019-06-20T10:39:24.516Z,25.56
2019-06-20T10:40:24.526Z,25.61
2019-06-20T10:41:24.578Z,25.67
2019-06-20T10:42:24.535Z,25.56
2019-06-20T10:43:24.596Z,25.65
2019-06-20T10:44:24.547Z,25.57
2019-06-20T10:45:24.556Z,25.71
2019-06-20T10:46:24.563Z,25.59
2019-06-20T10:47:32.596Z,25.39
2019-06-20T10:48:24.578Z,25.47
2019-06-20T10:49:24.634Z,25.54
2019-06-20T10:50:24.599Z,25.59
2019-06-20T10:51:24.595Z,25.44
2019-06-20T10:52:24.651Z,25.62
2019-06-20T10:53:24.660Z,25.69
2019-06-20T10:54:24.617Z,25.67
2019-06-20T10:55:24.623Z,25.71
2019-06-20T10:56:24.631Z,25.64
2019-06-20T10:57:24.631Z,25.56
2019-06-20T10:58:24.645Z,25.53
2019-06-20T10:59:24.688Z,25.57
2019-06-20T11:00:31.392Z,25.68
2019-06-20T11:01:24.665Z,25.43
2019-06-20T11:02:24.669Z,25.37
2019-06-20T11:03:24.671Z,25.24
2019-06-20T11:04:24.755Z,25.05
2019-06-20T11:05:24.681Z,25.05
2019-06-20T11:06:24.688Z,25.16
2019-06-20T11:07:24.695Z,25.09
2019-06-20T11:08:24.700Z,25.10
2019-06-20T11:09:24.747Z,25.24
2019-06-20T11:10:24.751Z,25.37
2019-06-20T11:11:24.720Z,25.16
2019-06-20T11:12:24.723Z,25.19
2019-06-20T11:13:24.734Z,24.94
2019-06-20T11:14:24.735Z,25.00
2019-06-20T11:15:34.171Z,24.95
2019-06-20T11:17:40.328Z,25.06
2019-06-20T11:18:40.002Z,25.02
2019-06-20T11:20:34.774Z,24.95
2019-06-20T11:21:34.765Z,25.09
2019-06-20T11:22:34.780Z,24.95
2019-06-20T11:23:34.792Z,24.63
2019-06-20T11:24:34.788Z,24.68
2019-06-20T11:25:34.789Z,24.83
2019-06-20T11:26:34.797Z,24.92
2019-06-20T11:27:37.071Z,24.94
2019-06-20T11:28:34.814Z,24.82
2019-06-20T11:29:34.816Z,24.94
2019-06-20T11:30:48.118Z,24.77
2019-06-20T11:31:34.833Z,24.77
2019-06-20T11:32:34.878Z,24.80
2019-06-20T11:33:42.540Z,24.83
2019-06-20T11:35:39.554Z,24.82
2019-06-20T11:36:48.194Z,24.67
2019-06-20T11:38:43.015Z,24.76
2019-06-20T11:39:43.251Z,24.82
2019-06-20T11:41:48.990Z,24.75
2019-06-20T11:42:39.923Z,24.60
2019-06-20T11:43:40.034Z,24.69
2019-06-20T11:44:48.017Z,24.71
2019-06-20T11:46:43.896Z,24.76
2019-06-20T11:47:43.906Z,24.76
2019-06-20T11:48:43.872Z,24.79
2019-06-20T11:49:53.567Z,24.69
2019-06-20T11:51:49.424Z,24.80
2019-06-20T11:52:49.417Z,24.91
2019-06-20T11:53:49.393Z,24.75
2019-06-20T11:54:49.411Z,24.82
2019-06-20T11:55:49.392Z,24.71
2019-06-20T11:56:49.419Z,24.87
2019-06-20T11:57:49.425Z,24.91
2019-06-20T11:58:49.427Z,24.97
2019-06-20T11:59:49.432Z,24.95
2019-06-20T12:01:03.221Z,24.87
2019-06-20T12:01:49.428Z,24.82
2019-06-20T12:02:50.282Z,24.97
2019-06-20T12:03:49.461Z,25.01
2019-06-20T12:04:49.444Z,24.92
2019-06-20T12:05:49.760Z,25.01
2019-06-20T12:06:49.476Z,25.01
2019-06-20T12:07:50.021Z,24.95
2019-06-20T12:08:49.444Z,24.92
2019-06-20T12:09:49.500Z,24.97
2019-06-20T12:10:49.540Z,25.02
2019-06-20T12:11:49.465Z,25.02
2019-06-20T12:12:49.463Z,25.00
2019-06-20T12:13:49.534Z,25.09
2019-06-20T12:14:49.538Z,25.05
2019-06-20T12:15:49.525Z,25.09
2019-06-20T12:16:49.522Z,25.00
2019-06-20T12:17:49.612Z,25.05
2019-06-20T12:18:49.546Z,25.02
2019-06-20T12:19:49.513Z,25.09
2019-06-20T12:20:49.528Z,25.06
2019-06-20T12:21:49.511Z,24.97
2019-06-20T12:22:50.798Z,24.98
2019-06-20T12:23:49.542Z,25.00
2019-06-20T12:24:49.561Z,24.87
2019-06-20T12:25:49.532Z,24.95
2019-06-20T12:26:49.585Z,24.95
2019-06-20T12:27:49.804Z,24.92
2019-06-20T12:28:49.553Z,25.00
2019-06-20T12:29:49.558Z,24.95
2019-06-20T12:30:50.486Z,25.01
2019-06-20T12:31:49.588Z,25.07
2019-06-20T12:32:49.684Z,24.94
2019-06-20T12:33:49.618Z,24.90
2019-06-20T12:34:49.585Z,24.76
2019-06-20T12:35:49.589Z,24.67
2019-06-20T12:36:49.601Z,24.68
2019-06-20T12:37:50.094Z,24.67
2019-06-20T12:38:50.883Z,24.76
2019-06-20T12:39:49.626Z,24.83
2019-06-20T12:40:50.407Z,24.88
2019-06-20T12:41:50.283Z,24.80
2019-06-20T12:42:49.626Z,24.83
2019-06-20T12:43:49.630Z,24.76
2019-06-20T12:44:50.802Z,24.80
2019-06-20T12:45:49.667Z,24.68
2019-06-20T12:46:49.659Z,24.56
2019-06-20T12:47:50.133Z,24.54
2019-06-20T12:48:49.672Z,24.56
2019-06-20T12:49:50.708Z,24.61
2019-06-20T12:50:49.675Z,24.49
2019-06-20T12:51:49.693Z,24.64
2019-06-20T12:52:49.814Z,24.73
2019-06-20T12:53:50.928Z,24.71
2019-06-20T12:54:49.699Z,24.82
2019-06-20T12:55:50.774Z,24.85
2019-06-20T12:56:49.773Z,24.76
2019-06-20T12:57:49.794Z,24.83
2019-06-20T12:58:49.742Z,24.80
2019-06-20T12:59:49.740Z,24.82
2019-06-20T13:00:50.407Z,24.79
2019-06-20T13:01:51.048Z,24.82
2019-06-20T13:02:49.914Z,24.76
2019-06-20T13:03:50.549Z,24.90
2019-06-20T13:04:50.596Z,24.85
2019-06-20T13:05:49.758Z,24.97
2019-06-20T13:06:49.797Z,24.87
2019-06-20T13:07:50.279Z,24.87
2019-06-20T13:08:49.813Z,24.87
2019-06-20T13:09:49.776Z,24.92
2019-06-20T13:10:49.799Z,24.98
2019-06-20T13:11:49.820Z,25.05
2019-06-20T13:12:49.794Z,25.00
2019-06-20T13:13:49.821Z,25.00
2019-06-20T13:14:49.800Z,24.95
2019-06-20T13:15:49.814Z,24.83
2019-06-20T13:16:50.329Z,24.95
2019-06-20T13:17:49.957Z,24.88
2019-06-20T13:18:50.432Z,24.79
2019-06-20T13:19:49.880Z,24.85
2019-06-20T13:20:49.838Z,24.82
2019-06-20T13:21:49.875Z,24.95
2019-06-20T13:22:49.841Z,24.88
2019-06-20T13:23:49.855Z,24.92
2019-06-20T13:24:49.879Z,24.95
2019-06-20T13:25:49.867Z,24.98
2019-06-20T13:26:50.770Z,25.07
2019-06-20T13:27:50.582Z,24.98
2019-06-20T13:29:03.204Z,25.01
2019-06-20T13:29:49.886Z,24.97
2019-06-20T13:30:52.081Z,24.94
2019-06-20T13:32:02.078Z,24.98
2019-06-20T13:32:49.905Z,24.87
2019-06-20T13:33:49.933Z,25.09
2019-06-20T13:34:49.914Z,25.06
2019-06-20T13:35:50.839Z,25.06
2019-06-20T13:36:49.921Z,24.97
2019-06-20T13:37:50.132Z,25.02
2019-06-20T13:38:49.979Z,25.01
2019-06-20T13:39:50.236Z,25.05
2019-06-20T13:40:49.970Z,25.07
2019-06-20T13:41:50.292Z,25.10
2019-06-20T13:42:50.429Z,25.10
2019-06-20T13:43:49.982Z,25.01
2019-06-20T13:44:49.975Z,25.06
2019-06-20T13:45:50.021Z,25.01
2019-06-20T13:46:49.981Z,25.06
2019-06-20T13:47:50.057Z,25.01
2019-06-20T13:48:49.988Z,25.06
2019-06-20T13:49:50.200Z,25.15
2019-06-20T13:50:50.005Z,25.01
2019-06-20T13:51:50.278Z,25.00
2019-06-20T13:52:51.275Z,24.98
2019-06-20T13:53:50.665Z,24.97
2019-06-20T13:54:50.035Z,24.92
2019-06-20T13:55:50.390Z,25.07
2019-06-20T13:56:50.058Z,25.01
2019-06-20T13:57:50.091Z,25.05
2019-06-20T13:58:51.205Z,25.01
2019-06-20T13:59:52.745Z,25.01
2019-06-20T14:00:50.993Z,24.98
2019-06-20T14:02:03.168Z,25.05
2019-06-20T14:02:51.555Z,25.07
2019-06-20T14:03:50.799Z,25.07
2019-06-20T14:04:50.725Z,25.06
2019-06-20T14:05:51.551Z,25.01
2019-06-20T14:06:50.079Z,24.94
2019-06-20T14:07:53.416Z,24.91
2019-06-20T14:08:50.324Z,24.95
2019-06-20T14:09:51.110Z,24.94